Time,TemperatureF,DewpointF,PressureIn,WindDirection,WindDirectionDegrees,WindSpeedMPH,WindSpeedGustMPH,Humidity,HourlyPrecipIn,Conditions,Clouds,dailyrainin,SoftwareType,DateUTC
2013-02-17 00:00:00,28.2,11.9,30.21,South,179,21.0,-999.0,50,0.00,,,0.00,Wunderground v.1.15,2013-02-17 06:00:00,
2013-02-17 00:05:00,28.3,12.0,30.21,West,279,19.0,-999.0,50,0.00,,,0.00,Wunderground v.1.15,2013-02-17 06:05:00,
2013-02-17 00:10:00,28.4,12.1,30.21,SSW,193,19.0,-999.0,50,0.00,,,0.00,Wunderground v.1.15,2013-02-17 06:10:00,
2013-02-17 00:15:00,28.4,12.6,30.21,West,279,18.0,-999.0,51,0.00,,,0.00,Wunderground v.1.15,2013-02-17 06:15:00,
2013-02-17 00:20:00,28.5,12.6,30.20,SSW,196,18.0,-999.0,51,0.00,,,0.00,Wunderground v.1.15,2013-02-17 06:20:00,
2013-02-17 00:25:00,28.4,12.6,30.21,West,279,16.0,-999.0,51,0.00,,,0.00,Wunderground v.1.15,2013-02-17 06:25:00,
2013-02-17 00:30:00,28.4,13.0,30.20,South,190,17.0,-999.0,52,0.00,,,0.00,Wunderground v.1.15,2013-02-17 06:30:00,
2013-02-17 00:35:00,28.2,13.2,30.20,SSW,194,17.0,-999.0,53,0.00,,,0.00,Wunderground v.1.15,2013-02-17 06:35:00,
2013-02-17 00:40:00,28.0,13.1,30.20,West,279,17.0,-999.0,53,0.00,,,0.00,Wunderground v.1.15,2013-02-17 06:40:00,
2013-02-17 00:44:00,27.9,13.0,30.20,SSW,201,17.0,-999.0,53,0.00,,,0.00,Wunderground v.1.15,2013-02-17 06:44:00,
2013-02-17 00:49:00,27.8,13.7,30.20,SSW,202,17.0,-999.0,55,0.00,,,0.00,Wunderground v.1.15,2013-02-17 06:49:00,
2013-02-17 00:54:00,27.6,13.5,30.20,SSW,200,16.0,-999.0,55,0.00,,,0.00,Wunderground v.1.15,2013-02-17 06:54:00,
2013-02-17 01:00:00,27.4,13.7,30.20,SSW,198,15.0,-999.0,56,0.00,,,0.00,Wunderground v.1.15,2013-02-17 07:00:00,
2013-02-17 01:05:00,27.3,14.1,30.20,SSW,203,15.0,-999.0,57,0.00,,,0.00,Wunderground v.1.15,2013-02-17 07:05:00,
2013-02-17 01:10:00,27.2,14.0,30.20,SSW,197,16.0,-999.0,57,0.00,,,0.00,Wunderground v.1.15,2013-02-17 07:10:00,
2013-02-17 01:15:00,27.2,13.6,30.20,West,279,15.0,-999.0,56,0.00,,,0.00,Wunderground v.1.15,2013-02-17 07:15:00,
2013-02-17 01:20:00,27.1,13.9,30.20,West,279,15.0,-999.0,57,0.00,,,0.00,Wunderground v.1.15,2013-02-17 07:20:00,
2013-02-17 01:24:00,27.1,13.5,30.20,SSW,203,16.0,-999.0,56,0.00,,,0.00,Wunderground v.1.15,2013-02-17 07:24:00,
2013-02-17 01:29:00,27.0,13.8,30.21,SSW,192,18.0,-999.0,57,0.00,,,0.00,Wunderground v.1.15,2013-02-17 07:29:00,
2013-02-17 01:34:00,27.0,13.8,30.20,SSW,201,17.0,-999.0,57,0.00,,,0.00,Wunderground v.1.15,2013-02-17 07:34:00,
2013-02-17 01:39:00,27.0,14.2,30.19,West,279,17.0,-999.0,58,0.00,,,0.00,Wunderground v.1.15,2013-02-17 07:39:00,
2013-02-17 01:44:00,27.0,14.2,30.20,West,279,16.0,-999.0,58,0.00,,,0.00,Wunderground v.1.15,2013-02-17 07:44:00,
2013-02-17 01:49:00,26.9,14.5,30.20,SSW,199,17.0,-999.0,59,0.00,,,0.00,Wunderground v.1.15,2013-02-17 07:49:00,
2013-02-17 01:54:00,26.8,14.4,30.20,SSW,203,17.0,-999.0,59,0.00,,,0.00,Wunderground v.1.15,2013-02-17 07:54:00,
2013-02-17 01:59:00,26.6,14.6,30.20,SSW,199,17.0,-999.0,60,0.00,,,0.00,Wunderground v.1.15,2013-02-17 07:59:00,
2013-02-17 02:04:00,26.5,14.5,30.20,West,279,16.0,-999.0,60,0.00,,,0.00,Wunderground v.1.15,2013-02-17 08:04:00,
2013-02-17 02:09:00,26.5,14.5,30.19,SSW,200,15.0,-999.0,60,0.00,,,0.00,Wunderground v.1.15,2013-02-17 08:09:00,
2013-02-17 02:14:00,26.3,14.7,30.19,West,279,16.0,-999.0,61,0.00,,,0.00,Wunderground v.1.15,2013-02-17 08:14:00,
2013-02-17 02:19:00,26.3,15.4,30.19,SSW,206,15.0,-999.0,63,0.00,,,0.00,Wunderground v.1.15,2013-02-17 08:19:00,
2013-02-17 02:24:00,26.2,14.9,30.19,West,279,15.0,-999.0,62,0.00,,,0.00,Wunderground v.1.15,2013-02-17 08:24:00,
2013-02-17 02:29:00,26.1,14.8,30.19,SSW,213,15.0,-999.0,62,0.00,,,0.00,Wunderground v.1.15,2013-02-17 08:29:00,
2013-02-17 02:34:00,26.1,15.6,30.19,SSW,205,12.0,-999.0,64,0.00,,,0.00,Wunderground v.1.15,2013-02-17 08:34:00,
2013-02-17 02:39:00,25.9,15.0,30.19,SSW,207,14.0,-999.0,63,0.00,,,0.00,Wunderground v.1.15,2013-02-17 08:39:00,
2013-02-17 02:44:00,26.0,15.1,30.19,SSW,201,15.0,-999.0,63,0.00,,,0.00,Wunderground v.1.15,2013-02-17 08:44:00,
2013-02-17 02:49:00,26.0,15.1,30.19,SSW,194,14.0,-999.0,63,0.00,,,0.00,Wunderground v.1.15,2013-02-17 08:49:00,
2013-02-17 02:54:00,26.0,15.1,30.19,West,279,14.0,-999.0,63,0.00,,,0.00,Wunderground v.1.15,2013-02-17 08:54:00,
2013-02-17 02:59:00,26.1,15.2,30.20,SSW,205,16.0,-999.0,63,0.00,,,0.00,Wunderground v.1.15,2013-02-17 08:59:00,
2013-02-17 03:04:00,26.1,15.6,30.20,SSW,198,16.0,-999.0,64,0.00,,,0.00,Wunderground v.1.15,2013-02-17 09:04:00,
2013-02-17 03:09:00,25.9,15.7,30.19,SSW,194,15.0,-999.0,65,0.00,,,0.00,Wunderground v.1.15,2013-02-17 09:09:00,
2013-02-17 03:14:00,25.7,15.9,30.20,SSW,198,15.0,-999.0,66,0.00,,,0.00,Wunderground v.1.15,2013-02-17 09:14:00,
2013-02-17 03:19:00,25.4,16.3,30.20,South,185,14.0,-999.0,68,0.00,,,0.00,Wunderground v.1.15,2013-02-17 09:19:00,
2013-02-17 03:24:00,25.0,15.9,30.20,West,279,14.0,-999.0,68,0.00,,,0.00,Wunderground v.1.15,2013-02-17 09:24:00,
2013-02-17 03:29:00,24.5,15.8,30.20,SSW,198,12.0,-999.0,69,0.00,,,0.00,Wunderground v.1.15,2013-02-17 09:29:00,
2013-02-17 03:34:00,24.0,16.3,30.20,West,279,13.0,-999.0,72,0.00,,,0.00,Wunderground v.1.15,2013-02-17 09:34:00,
2013-02-17 03:39:00,23.6,15.9,30.20,SSW,194,15.0,-999.0,72,0.00,,,0.00,Wunderground v.1.15,2013-02-17 09:39:00,
2013-02-17 03:44:00,23.2,15.5,30.20,SSW,198,12.0,-999.0,72,0.00,,,0.00,Wunderground v.1.15,2013-02-17 09:44:00,
2013-02-17 03:49:00,22.8,15.1,30.20,SSW,210,13.0,-999.0,72,0.00,,,0.00,Wunderground v.1.15,2013-02-17 09:49:00,
2013-02-17 03:54:00,22.6,15.6,30.20,SSW,211,12.0,-999.0,74,0.00,,,0.00,Wunderground v.1.15,2013-02-17 09:54:00,
2013-02-17 03:59:00,22.4,16.3,30.20,West,279,13.0,-999.0,77,0.00,,,0.00,Wunderground v.1.15,2013-02-17 09:59:00,
2013-02-17 04:04:00,22.2,15.8,30.20,SSW,209,13.0,-999.0,76,0.00,,,0.00,Wunderground v.1.15,2013-02-17 10:04:00,
2013-02-17 04:09:00,22.1,16.0,30.20,SW,217,13.0,-999.0,77,0.00,,,0.00,Wunderground v.1.15,2013-02-17 10:09:00,
2013-02-17 04:14:00,22.0,16.5,30.20,SW,220,14.0,-999.0,79,0.00,,,0.00,Wunderground v.1.15,2013-02-17 10:14:00,
2013-02-17 04:19:00,21.7,15.6,30.20,SW,217,14.0,-999.0,77,0.00,,,0.00,Wunderground v.1.15,2013-02-17 10:19:00,
2013-02-17 04:24:00,21.5,16.0,30.20,SW,217,12.0,-999.0,79,0.00,,,0.00,Wunderground v.1.15,2013-02-17 10:24:00,
2013-02-17 04:29:00,21.3,16.1,30.20,West,279,13.0,-999.0,80,0.00,,,0.00,Wunderground v.1.15,2013-02-17 10:29:00,
2013-02-17 04:34:00,21.2,16.0,30.21,SW,220,13.0,-999.0,80,0.00,,,0.00,Wunderground v.1.15,2013-02-17 10:34:00,
2013-02-17 04:39:00,21.0,16.4,30.22,SSW,209,12.0,-999.0,82,0.00,,,0.00,Wunderground v.1.15,2013-02-17 10:39:00,
2013-02-17 04:44:00,20.9,16.8,30.21,West,279,12.0,-999.0,84,0.00,,,0.00,Wunderground v.1.15,2013-02-17 10:44:00,
2013-02-17 04:49:00,21.0,16.6,30.21,SW,215,12.0,-999.0,83,0.00,,,0.00,Wunderground v.1.15,2013-02-17 10:49:00,
2013-02-17 04:54:00,21.0,16.6,30.21,SW,215,12.0,-999.0,83,0.00,,,0.00,Wunderground v.1.15,2013-02-17 10:54:00,
2013-02-17 04:59:00,20.9,16.8,30.21,West,279,11.0,-999.0,84,0.00,,,0.00,Wunderground v.1.15,2013-02-17 10:59:00,
2013-02-17 05:04:00,20.8,16.7,30.22,SW,217,11.0,-999.0,84,0.00,,,0.00,Wunderground v.1.15,2013-02-17 11:04:00,
2013-02-17 05:09:00,20.8,16.5,30.22,SW,217,11.0,-999.0,83,0.00,,,0.00,Wunderground v.1.15,2013-02-17 11:09:00,
2013-02-17 05:14:00,20.7,16.4,30.22,West,279,11.0,-999.0,83,0.00,,,0.00,Wunderground v.1.15,2013-02-17 11:14:00,
2013-02-17 05:19:00,20.7,16.6,30.22,SW,215,10.0,-999.0,84,0.00,,,0.00,Wunderground v.1.15,2013-02-17 11:19:00,
2013-02-17 05:24:00,20.6,16.5,30.22,SW,215,11.0,-999.0,84,0.00,,,0.00,Wunderground v.1.15,2013-02-17 11:24:00,
2013-02-17 05:29:00,20.6,16.8,30.22,West,279,11.0,-999.0,85,0.00,,,0.00,Wunderground v.1.15,2013-02-17 11:29:00,
2013-02-17 05:34:00,20.7,17.2,30.22,SSW,211,10.0,-999.0,86,0.00,,,0.00,Wunderground v.1.15,2013-02-17 11:34:00,
2013-02-17 05:39:00,20.7,17.2,30.23,SSW,213,9.0,-999.0,86,0.00,,,0.00,Wunderground v.1.15,2013-02-17 11:39:00,
2013-02-17 05:44:00,20.8,17.3,30.22,SW,215,10.0,-999.0,86,0.00,,,0.00,Wunderground v.1.15,2013-02-17 11:44:00,
2013-02-17 05:49:00,20.9,17.4,30.23,SSW,198,10.0,-999.0,86,0.00,,,0.00,Wunderground v.1.15,2013-02-17 11:49:00,
2013-02-17 05:54:00,21.1,17.6,30.22,SSW,200,10.0,-999.0,86,0.00,,,0.00,Wunderground v.1.15,2013-02-17 11:54:00,
2013-02-17 05:59:00,21.3,17.8,30.22,South,188,11.0,-999.0,86,0.00,,,0.00,Wunderground v.1.15,2013-02-17 11:59:00,
2013-02-17 06:04:00,21.5,17.4,30.22,South,183,13.0,-999.0,84,0.00,,,0.00,Wunderground v.1.15,2013-02-17 12:04:00,
2013-02-17 06:09:00,21.7,17.3,30.22,West,279,12.0,-999.0,83,0.00,,,0.00,Wunderground v.1.15,2013-02-17 12:09:00,
2013-02-17 06:14:00,21.8,17.7,30.22,SSW,205,12.0,-999.0,84,0.00,,,0.00,Wunderground v.1.15,2013-02-17 12:14:00,
2013-02-17 06:19:00,21.8,17.7,30.22,SW,221,11.0,-999.0,84,0.00,,,0.00,Wunderground v.1.15,2013-02-17 12:19:00,
2013-02-17 06:24:00,21.8,17.4,30.22,SW,221,10.0,-999.0,83,0.00,,,0.00,Wunderground v.1.15,2013-02-17 12:24:00,
2013-02-17 06:29:00,21.7,17.6,30.22,SW,226,10.0,-999.0,84,0.00,,,0.00,Wunderground v.1.15,2013-02-17 12:29:00,
2013-02-17 06:34:00,21.7,17.3,30.22,SW,226,9.0,-999.0,83,0.00,,,0.00,Wunderground v.1.15,2013-02-17 12:34:00,
2013-02-17 06:39:00,21.7,17.3,30.24,SW,224,8.0,-999.0,83,0.00,,,0.00,Wunderground v.1.15,2013-02-17 12:39:00,
2013-02-17 06:44:00,21.8,18.0,30.23,West,279,7.0,-999.0,85,0.00,,,0.00,Wunderground v.1.15,2013-02-17 12:44:00,
2013-02-17 06:49:00,21.9,18.1,30.23,West,279,6.0,-999.0,85,0.00,,,0.00,Wunderground v.1.15,2013-02-17 12:49:00,
2013-02-17 06:54:00,21.9,18.1,30.23,SW,236,5.0,-999.0,85,0.00,,,0.00,Wunderground v.1.15,2013-02-17 12:54:00,
2013-02-17 06:59:00,22.0,18.2,30.23,SW,234,6.0,-999.0,85,0.00,,,0.00,Wunderground v.1.15,2013-02-17 12:59:00,
2013-02-17 07:04:00,22.1,18.3,30.23,SW,236,5.0,-999.0,85,0.00,,,0.00,Wunderground v.1.15,2013-02-17 13:04:00,
2013-02-17 07:09:00,22.4,18.6,30.23,SW,236,4.0,-999.0,85,0.00,,,0.00,Wunderground v.1.15,2013-02-17 13:09:00,
2013-02-17 07:14:00,22.6,19.0,30.23,West,279,4.0,-999.0,86,0.00,,,0.00,Wunderground v.1.15,2013-02-17 13:14:00,
2013-02-17 07:19:00,22.9,19.1,30.24,SW,236,3.0,-999.0,85,0.00,,,0.00,Wunderground v.1.15,2013-02-17 13:19:00,
2013-02-17 07:24:00,23.1,19.0,30.24,SW,219,5.0,-999.0,84,0.00,,,0.00,Wunderground v.1.15,2013-02-17 13:24:00,
2013-02-17 07:29:00,23.4,19.0,30.24,SSW,207,6.0,-999.0,83,0.00,,,0.00,Wunderground v.1.15,2013-02-17 13:29:00,
2013-02-17 07:34:00,23.8,19.4,30.24,SSE,162,10.0,-999.0,83,0.00,,,0.00,Wunderground v.1.15,2013-02-17 13:34:00,
2013-02-17 07:39:00,24.2,19.5,30.24,South,184,7.0,-999.0,82,0.00,,,0.00,Wunderground v.1.15,2013-02-17 13:39:00,
2013-02-17 07:44:00,24.4,19.4,30.25,SSE,165,9.0,-999.0,81,0.00,,,0.00,Wunderground v.1.15,2013-02-17 13:44:00,
2013-02-17 07:49:00,24.8,20.1,30.25,West,279,9.0,-999.0,82,0.00,,,0.00,Wunderground v.1.15,2013-02-17 13:49:00,
2013-02-17 07:54:00,25.1,20.1,30.25,South,179,7.0,-999.0,81,0.00,,,0.00,Wunderground v.1.15,2013-02-17 13:54:00,
2013-02-17 07:58:00,25.4,20.4,30.25,South,179,9.0,-999.0,81,0.00,,,0.00,Wunderground v.1.15,2013-02-17 13:58:00,
2013-02-17 08:03:00,25.8,20.8,30.25,South,179,9.0,-999.0,81,0.00,,,0.00,Wunderground v.1.15,2013-02-17 14:03:00,
2013-02-17 08:08:00,26.2,20.9,30.25,South,180,9.0,-999.0,80,0.00,,,0.00,Wunderground v.1.15,2013-02-17 14:08:00,
2013-02-17 08:13:00,26.6,21.0,30.25,South,170,11.0,-999.0,79,0.00,,,0.00,Wunderground v.1.15,2013-02-17 14:13:00,
2013-02-17 08:18:00,26.9,21.3,30.25,South,173,12.0,-999.0,79,0.00,,,0.00,Wunderground v.1.15,2013-02-17 14:18:00,
2013-02-17 08:23:00,27.2,21.2,30.25,West,279,11.0,-999.0,78,0.00,,,0.00,Wunderground v.1.15,2013-02-17 14:23:00,
2013-02-17 08:28:00,27.4,21.4,30.25,South,175,11.0,-999.0,78,0.00,,,0.00,Wunderground v.1.15,2013-02-17 14:28:00,
2013-02-17 08:33:00,27.8,21.8,30.25,South,170,11.0,-999.0,78,0.00,,,0.00,Wunderground v.1.15,2013-02-17 14:33:00,
2013-02-17 08:38:00,28.1,21.8,30.25,West,279,8.0,-999.0,77,0.00,,,0.00,Wunderground v.1.15,2013-02-17 14:38:00,
2013-02-17 08:43:00,28.5,22.5,30.25,South,171,7.0,-999.0,78,0.00,,,0.00,Wunderground v.1.15,2013-02-17 14:43:00,
2013-02-17 08:48:00,29.0,23.0,30.25,West,279,5.0,-999.0,78,0.00,,,0.00,Wunderground v.1.15,2013-02-17 14:48:00,
2013-02-17 08:53:00,29.6,23.6,30.25,West,279,5.0,-999.0,78,0.00,,,0.00,Wunderground v.1.15,2013-02-17 14:53:00,
2013-02-17 08:58:00,30.2,23.9,30.25,SSE,167,4.0,-999.0,77,0.00,,,0.00,Wunderground v.1.15,2013-02-17 14:58:00,
2013-02-17 09:03:00,30.9,24.2,30.25,West,279,4.0,-999.0,76,0.00,,,0.00,Wunderground v.1.15,2013-02-17 15:03:00,
2013-02-17 09:08:00,31.4,24.7,30.25,SE,142,4.0,-999.0,76,0.00,,,0.00,Wunderground v.1.15,2013-02-17 15:08:00,
2013-02-17 09:13:00,31.9,25.2,30.25,SE,143,4.0,-999.0,76,0.00,,,0.00,Wunderground v.1.15,2013-02-17 15:13:00,
2013-02-17 09:18:00,32.4,25.0,30.25,SE,140,4.0,-999.0,74,0.00,,,0.00,Wunderground v.1.15,2013-02-17 15:18:00,
2013-02-17 09:23:00,32.8,25.4,30.25,SSE,147,6.0,-999.0,74,0.00,,,0.00,Wunderground v.1.15,2013-02-17 15:23:00,
2013-02-17 09:28:00,33.1,25.4,30.25,West,279,6.0,-999.0,73,0.00,,,0.00,Wunderground v.1.15,2013-02-17 15:28:00,
2013-02-17 09:33:00,33.6,26.2,30.25,SE,143,5.0,-999.0,74,0.00,,,0.00,Wunderground v.1.15,2013-02-17 15:33:00,
2013-02-17 09:38:00,34.1,26.7,30.25,SE,142,4.0,-999.0,74,0.00,,,0.00,Wunderground v.1.15,2013-02-17 15:38:00,
2013-02-17 09:43:00,34.6,26.5,30.25,SE,142,1.0,-999.0,72,0.00,,,0.00,Wunderground v.1.15,2013-02-17 15:43:00,
2013-02-17 09:48:00,35.1,26.6,30.25,West,279,5.0,-999.0,71,0.00,,,0.00,Wunderground v.1.15,2013-02-17 15:48:00,
2013-02-17 09:53:00,35.7,26.5,30.25,West,279,4.0,-999.0,69,0.00,,,0.00,Wunderground v.1.15,2013-02-17 15:53:00,
2013-02-17 09:58:00,36.2,26.6,30.25,SE,138,3.0,-999.0,68,0.00,,,0.00,Wunderground v.1.15,2013-02-17 15:58:00,
2013-02-17 10:03:00,36.8,27.6,30.25,ESE,123,5.0,-999.0,69,0.00,,,0.00,Wunderground v.1.15,2013-02-17 16:03:00,
2013-02-17 10:08:00,37.5,27.2,30.26,West,279,2.0,-999.0,66,0.00,,,0.00,Wunderground v.1.15,2013-02-17 16:08:00,
2013-02-17 10:13:00,38.0,26.9,30.25,ESE,108,4.0,-999.0,64,0.00,,,0.00,Wunderground v.1.15,2013-02-17 16:13:00,
2013-02-17 10:18:00,38.3,27.6,30.26,ESE,107,5.0,-999.0,65,0.00,,,0.00,Wunderground v.1.15,2013-02-17 16:18:00,
2013-02-17 10:23:00,38.7,27.9,30.25,East,93,3.0,-999.0,65,0.00,,,0.00,Wunderground v.1.15,2013-02-17 16:23:00,
2013-02-17 10:28:00,39.1,27.2,30.25,ESE,118,3.0,-999.0,62,0.00,,,0.00,Wunderground v.1.15,2013-02-17 16:28:00,
2013-02-17 10:33:00,39.3,27.4,30.25,West,279,5.0,-999.0,62,0.00,,,0.00,Wunderground v.1.15,2013-02-17 16:33:00,
2013-02-17 10:38:00,39.5,27.2,30.25,West,279,3.0,-999.0,61,0.00,,,0.00,Wunderground v.1.15,2013-02-17 16:38:00,
2013-02-17 10:43:00,39.7,26.9,30.25,SE,146,7.0,-999.0,60,0.00,,,0.00,Wunderground v.1.15,2013-02-17 16:43:00,
2013-02-17 10:48:00,40.1,27.3,30.25,ESE,121,6.0,-999.0,60,0.00,,,0.00,Wunderground v.1.15,2013-02-17 16:48:00,
2013-02-17 10:53:00,40.3,27.5,30.25,ESE,120,9.0,-999.0,60,0.00,,,0.00,Wunderground v.1.15,2013-02-17 16:53:00,
2013-02-17 10:58:00,40.6,26.5,30.25,West,279,6.0,-999.0,57,0.00,,,0.00,Wunderground v.1.15,2013-02-17 16:58:00,
2013-02-17 11:03:00,41.0,26.5,30.25,West,279,9.0,-999.0,56,0.00,,,0.00,Wunderground v.1.15,2013-02-17 17:03:00,
2013-02-17 11:08:00,41.5,26.5,30.25,SE,132,10.0,-999.0,55,0.00,,,0.00,Wunderground v.1.15,2013-02-17 17:08:00,
2013-02-17 11:13:00,42.0,26.1,30.24,West,279,9.0,-999.0,53,0.00,,,0.00,Wunderground v.1.15,2013-02-17 17:13:00,
2013-02-17 11:18:00,42.3,25.0,30.24,West,279,8.0,-999.0,50,0.00,,,0.00,Wunderground v.1.15,2013-02-17 17:18:00,
2013-02-17 11:23:00,42.5,24.2,30.24,SSE,150,6.0,-999.0,48,0.00,,,0.00,Wunderground v.1.15,2013-02-17 17:23:00,
2013-02-17 11:28:00,42.5,25.1,30.24,SE,136,6.0,-999.0,50,0.00,,,0.00,Wunderground v.1.15,2013-02-17 17:28:00,
2013-02-17 11:33:00,42.6,24.8,30.24,ESE,113,6.0,-999.0,49,0.00,,,0.00,Wunderground v.1.15,2013-02-17 17:33:00,
2013-02-17 11:38:00,42.8,24.9,30.25,SSE,167,6.0,-999.0,49,0.00,,,0.00,Wunderground v.1.15,2013-02-17 17:38:00,
2013-02-17 11:43:00,43.0,25.1,30.23,SSE,153,12.0,-999.0,49,0.00,,,0.00,Wunderground v.1.15,2013-02-17 17:43:00,
2013-02-17 11:48:00,43.1,24.7,30.23,West,279,16.0,-999.0,48,0.00,,,0.00,Wunderground v.1.15,2013-02-17 17:48:00,
2013-02-17 11:53:00,43.1,22.1,30.22,SSE,155,12.0,-999.0,43,0.00,,,0.00,Wunderground v.1.15,2013-02-17 17:53:00,
2013-02-17 11:58:00,43.1,23.7,30.22,SSE,157,12.0,-999.0,46,0.00,,,0.00,Wunderground v.1.15,2013-02-17 17:58:00,
2013-02-17 12:03:00,43.3,23.4,30.22,SSE,148,10.0,-999.0,45,0.00,,,0.00,Wunderground v.1.15,2013-02-17 18:03:00,
2013-02-17 12:08:00,43.6,23.6,30.21,SSE,160,8.0,-999.0,45,0.00,,,0.00,Wunderground v.1.15,2013-02-17 18:08:00,
2013-02-17 12:13:00,44.1,25.1,30.21,SE,132,7.0,-999.0,47,0.00,,,0.00,Wunderground v.1.15,2013-02-17 18:13:00,
2013-02-17 12:18:00,44.6,22.9,30.23,South,187,11.0,-999.0,42,0.00,,,0.00,Wunderground v.1.15,2013-02-17 18:18:00,
2013-02-17 12:23:00,44.8,23.1,30.21,West,279,14.0,-999.0,42,0.00,,,0.00,Wunderground v.1.15,2013-02-17 18:23:00,
2013-02-17 12:28:00,44.9,23.2,30.20,SSE,148,16.0,-999.0,42,0.00,,,0.00,Wunderground v.1.15,2013-02-17 18:28:00,
2013-02-17 12:33:00,44.8,23.6,30.20,South,175,10.0,-999.0,43,0.00,,,0.00,Wunderground v.1.15,2013-02-17 18:33:00,
2013-02-17 12:38:00,44.7,23.5,30.20,South,181,12.0,-999.0,43,0.00,,,0.00,Wunderground v.1.15,2013-02-17 18:38:00,
2013-02-17 12:43:00,44.6,23.5,30.20,SSE,158,13.0,-999.0,43,0.00,,,0.00,Wunderground v.1.15,2013-02-17 18:43:00,
2013-02-17 12:48:00,44.3,23.2,30.20,SSE,149,15.0,-999.0,43,0.00,,,0.00,Wunderground v.1.15,2013-02-17 18:48:00,
2013-02-17 12:53:00,44.5,24.5,30.19,SE,138,11.0,-999.0,45,0.00,,,0.00,Wunderground v.1.15,2013-02-17 18:53:00,
2013-02-17 12:58:00,44.9,24.8,30.19,SSE,164,12.0,-999.0,45,0.00,,,0.00,Wunderground v.1.15,2013-02-17 18:58:00,
2013-02-17 13:03:00,45.4,25.3,30.19,ESE,120,7.0,-999.0,45,0.00,,,0.00,Wunderground v.1.15,2013-02-17 19:03:00,
2013-02-17 13:08:00,46.3,24.4,30.20,South,188,5.0,-999.0,42,0.00,,,0.00,Wunderground v.1.15,2013-02-17 19:08:00,
2013-02-17 13:13:00,47.0,25.1,30.19,SSE,167,16.0,-999.0,42,0.00,,,0.00,Wunderground v.1.15,2013-02-17 19:13:00,
2013-02-17 13:18:00,47.3,23.6,30.18,SSE,147,16.0,-999.0,39,0.00,,,0.00,Wunderground v.1.15,2013-02-17 19:18:00,
2013-02-17 13:23:00,47.4,24.3,30.19,West,279,14.0,-999.0,40,0.00,,,0.00,Wunderground v.1.15,2013-02-17 19:23:00,
2013-02-17 13:28:00,47.4,24.3,30.18,South,175,9.0,-999.0,40,0.00,,,0.00,Wunderground v.1.15,2013-02-17 19:28:00,
2013-02-17 13:33:00,47.0,24.5,30.18,SE,145,16.0,-999.0,41,0.00,,,0.00,Wunderground v.1.15,2013-02-17 19:33:00,
2013-02-17 13:38:00,46.3,22.7,30.17,South,176,10.0,-999.0,39,0.00,,,0.00,Wunderground v.1.15,2013-02-17 19:38:00,
2013-02-17 13:43:00,45.8,23.4,30.17,West,279,16.0,-999.0,41,0.00,,,0.00,Wunderground v.1.15,2013-02-17 19:43:00,
2013-02-17 13:48:00,45.8,23.4,30.17,West,279,14.0,-999.0,41,0.00,,,0.00,Wunderground v.1.15,2013-02-17 19:48:00,
2013-02-17 13:53:00,45.8,24.0,30.18,West,279,16.0,-999.0,42,0.00,,,0.00,Wunderground v.1.15,2013-02-17 19:53:00,
2013-02-17 13:58:00,46.1,23.1,30.17,SE,139,11.0,-999.0,40,0.00,,,0.00,Wunderground v.1.15,2013-02-17 19:58:00,
2013-02-17 14:03:00,46.3,23.9,30.16,SE,124,10.0,-999.0,41,0.00,,,0.00,Wunderground v.1.15,2013-02-17 20:03:00,
2013-02-17 14:08:00,46.3,23.9,30.16,West,279,10.0,-999.0,41,0.00,,,0.00,Wunderground v.1.15,2013-02-17 20:08:00,
2013-02-17 14:13:00,46.4,23.4,30.17,SSE,150,11.0,-999.0,40,0.00,,,0.00,Wunderground v.1.15,2013-02-17 20:13:00,
2013-02-17 14:18:00,46.5,24.0,30.16,West,279,14.0,-999.0,41,0.00,,,0.00,Wunderground v.1.15,2013-02-17 20:18:00,
2013-02-17 14:23:00,46.6,23.5,30.15,West,279,8.0,-999.0,40,0.00,,,0.00,Wunderground v.1.15,2013-02-17 20:23:00,
2013-02-17 14:28:00,46.7,24.8,30.15,West,279,15.0,-999.0,42,0.00,,,0.00,Wunderground v.1.15,2013-02-17 20:28:00,
2013-02-17 14:33:00,46.8,24.9,30.17,SE,134,14.0,-999.0,42,0.00,,,0.00,Wunderground v.1.15,2013-02-17 20:33:00,
2013-02-17 14:38:00,46.9,23.8,30.15,SE,126,9.0,-999.0,40,0.00,,,0.00,Wunderground v.1.15,2013-02-17 20:38:00,
2013-02-17 14:43:00,46.9,25.0,30.15,SE,130,10.0,-999.0,42,0.00,,,0.00,Wunderground v.1.15,2013-02-17 20:43:00,
2013-02-17 14:48:00,47.4,24.9,30.16,SE,126,16.0,-999.0,41,0.00,,,0.00,Wunderground v.1.15,2013-02-17 20:48:00,
2013-02-17 14:53:00,48.1,24.3,30.16,SE,126,7.0,-999.0,39,0.00,,,0.00,Wunderground v.1.15,2013-02-17 20:53:00,
2013-02-17 14:58:00,48.5,24.0,30.14,SE,124,11.0,-999.0,38,0.00,,,0.00,Wunderground v.1.15,2013-02-17 20:58:00,
2013-02-17 15:03:00,48.7,25.4,30.14,ESE,115,10.0,-999.0,40,0.00,,,0.00,Wunderground v.1.15,2013-02-17 21:03:00,
2013-02-17 15:08:00,48.8,24.3,30.14,West,279,13.0,-999.0,38,0.00,,,0.00,Wunderground v.1.15,2013-02-17 21:08:00,
2013-02-17 15:13:00,48.9,24.4,30.16,ESE,120,14.0,-999.0,38,0.00,,,0.00,Wunderground v.1.15,2013-02-17 21:13:00,
2013-02-17 15:18:00,48.8,24.9,30.14,West,279,7.0,-999.0,39,0.00,,,0.00,Wunderground v.1.15,2013-02-17 21:18:00,
2013-02-17 15:23:00,48.7,24.2,30.14,West,279,12.0,-999.0,38,0.00,,,0.00,Wunderground v.1.15,2013-02-17 21:23:00,
2013-02-17 15:28:00,48.7,24.2,30.13,SE,136,12.0,-999.0,38,0.00,,,0.00,Wunderground v.1.15,2013-02-17 21:28:00,
2013-02-17 15:33:00,48.8,23.6,30.15,SE,125,13.0,-999.0,37,0.00,,,0.00,Wunderground v.1.15,2013-02-17 21:33:00,
2013-02-17 15:38:00,48.7,24.2,30.13,SE,137,16.0,-999.0,38,0.00,,,0.00,Wunderground v.1.15,2013-02-17 21:38:00,
2013-02-17 15:43:00,48.3,24.5,30.13,SE,128,15.0,-999.0,39,0.00,,,0.00,Wunderground v.1.15,2013-02-17 21:43:00,
2013-02-17 15:48:00,48.2,24.4,30.13,ESE,123,13.0,-999.0,39,0.00,,,0.00,Wunderground v.1.15,2013-02-17 21:48:00,
2013-02-17 15:53:00,48.4,24.6,30.15,SSE,155,13.0,-999.0,39,0.00,,,0.00,Wunderground v.1.15,2013-02-17 21:53:00,
2013-02-17 15:58:00,48.7,24.2,30.13,SE,125,11.0,-999.0,38,0.00,,,0.00,Wunderground v.1.15,2013-02-17 21:58:00,
2013-02-17 16:03:00,48.7,24.2,30.12,ESE,114,13.0,-999.0,38,0.00,,,0.00,Wunderground v.1.15,2013-02-17 22:03:00,
2013-02-17 16:08:00,48.6,24.7,30.13,ESE,108,10.0,-999.0,39,0.00,,,0.00,Wunderground v.1.15,2013-02-17 22:08:00,
2013-02-17 16:13:00,48.6,24.7,30.12,ESE,112,9.0,-999.0,39,0.00,,,0.00,Wunderground v.1.15,2013-02-17 22:13:00,
2013-02-17 16:18:00,48.7,24.8,30.12,West,279,7.0,-999.0,39,0.00,,,0.00,Wunderground v.1.15,2013-02-17 22:18:00,
2013-02-17 16:23:00,48.6,25.3,30.12,East,92,3.0,-999.0,40,0.00,,,0.00,Wunderground v.1.15,2013-02-17 22:23:00,
2013-02-17 16:28:00,48.4,25.2,30.13,ESE,123,11.0,-999.0,40,0.00,,,0.00,Wunderground v.1.15,2013-02-17 22:28:00,
2013-02-17 16:33:00,48.3,25.7,30.11,ESE,115,9.0,-999.0,41,0.00,,,0.00,Wunderground v.1.15,2013-02-17 22:33:00,
2013-02-17 16:38:00,48.3,25.1,30.11,East,81,7.0,-999.0,40,0.00,,,0.00,Wunderground v.1.15,2013-02-17 22:38:00,
2013-02-17 16:43:00,48.2,25.0,30.11,SE,132,12.0,-999.0,40,0.00,,,0.00,Wunderground v.1.15,2013-02-17 22:43:00,
2013-02-17 16:48:00,48.0,24.8,30.13,ESE,121,13.0,-999.0,40,0.00,,,0.00,Wunderground v.1.15,2013-02-17 22:48:00,
2013-02-17 16:53:00,47.8,24.6,30.12,ESE,119,10.0,-999.0,40,0.00,,,0.00,Wunderground v.1.15,2013-02-17 22:53:00,
2013-02-17 16:57:00,47.6,24.4,30.12,ESE,115,6.0,-999.0,40,0.00,,,0.00,Wunderground v.1.15,2013-02-17 22:57:00,
2013-02-17 17:02:00,47.3,24.8,30.13,ESE,113,2.0,-999.0,41,0.00,,,0.00,Wunderground v.1.15,2013-02-17 23:02:00,
2013-02-17 17:08:00,47.0,25.1,30.11,SE,124,10.0,-999.0,42,0.00,,,0.00,Wunderground v.1.15,2013-02-17 23:08:00,
2013-02-17 17:13:00,46.5,24.6,30.11,ESE,120,11.0,-999.0,42,0.00,,,0.00,Wunderground v.1.15,2013-02-17 23:13:00,
2013-02-17 17:18:00,46.1,25.4,30.11,ESE,115,11.0,-999.0,44,0.00,,,0.00,Wunderground v.1.15,2013-02-17 23:18:00,
2013-02-17 17:23:00,45.5,25.4,30.12,ESE,119,7.0,-999.0,45,0.00,,,0.00,Wunderground v.1.15,2013-02-17 23:23:00,
2013-02-17 17:28:00,45.0,24.9,30.11,ESE,113,10.0,-999.0,45,0.00,,,0.00,Wunderground v.1.15,2013-02-17 23:28:00,
2013-02-17 17:33:00,44.6,24.5,30.11,ESE,113,10.0,-999.0,45,0.00,,,0.00,Wunderground v.1.15,2013-02-17 23:33:00,
2013-02-17 17:38:00,44.2,24.7,30.11,ENE,77,6.0,-999.0,46,0.00,,,0.00,Wunderground v.1.15,2013-02-17 23:38:00,
2013-02-17 17:43:00,43.7,24.8,30.12,ESE,115,11.0,-999.0,47,0.00,,,0.00,Wunderground v.1.15,2013-02-17 23:43:00,
2013-02-17 17:48:00,43.2,25.3,30.10,ESE,117,10.0,-999.0,49,0.00,,,0.00,Wunderground v.1.15,2013-02-17 23:48:00,
2013-02-17 17:53:00,42.7,25.3,30.10,ESE,106,4.0,-999.0,50,0.00,,,0.00,Wunderground v.1.15,2013-02-17 23:53:00,
2013-02-17 17:58:00,42.2,25.3,30.12,East,86,3.0,-999.0,51,0.00,,,0.00,Wunderground v.1.15,2013-02-17 23:58:00,
2013-02-17 18:03:00,41.7,25.8,30.10,East,98,2.0,-999.0,53,0.00,,,0.00,Wunderground v.1.15,2013-02-18 00:03:00,
2013-02-17 18:08:00,41.2,25.8,30.10,East,90,3.0,-999.0,54,0.00,,,0.00,Wunderground v.1.15,2013-02-18 00:08:00,
2013-02-17 18:13:00,40.8,26.3,30.10,West,279,2.0,-999.0,56,0.00,,,0.00,Wunderground v.1.15,2013-02-18 00:13:00,
2013-02-17 18:17:00,40.4,25.1,30.12,ESE,113,9.0,-999.0,54,0.00,,,0.00,Wunderground v.1.15,2013-02-18 00:17:00,
2013-02-17 18:22:00,40.0,25.1,30.10,West,279,9.0,-999.0,55,0.00,,,0.00,Wunderground v.1.15,2013-02-18 00:22:00,
2013-02-17 18:27:00,39.7,24.4,30.10,West,279,5.0,-999.0,54,0.00,,,0.00,Wunderground v.1.15,2013-02-18 00:27:00,
2013-02-17 18:32:00,39.5,24.7,30.11,East,97,3.0,-999.0,55,0.00,,,0.00,Wunderground v.1.15,2013-02-18 00:32:00,
2013-02-17 18:37:00,39.3,24.5,30.11,East,99,3.0,-999.0,55,0.00,,,0.00,Wunderground v.1.15,2013-02-18 00:37:00,
2013-02-17 18:42:00,39.1,24.7,30.10,West,279,6.0,-999.0,56,0.00,,,0.00,Wunderground v.1.15,2013-02-18 00:42:00,
2013-02-17 18:47:00,38.8,24.4,30.11,East,93,3.0,-999.0,56,0.00,,,0.00,Wunderground v.1.15,2013-02-18 00:47:00,
2013-02-17 18:52:00,38.6,25.5,30.10,East,99,6.0,-999.0,59,0.00,,,0.00,Wunderground v.1.15,2013-02-18 00:52:00,
2013-02-17 18:57:00,38.4,24.5,30.10,West,279,2.0,-999.0,57,0.00,,,0.00,Wunderground v.1.15,2013-02-18 00:57:00,
2013-02-17 19:02:00,38.2,24.3,30.10,East,86,2.0,-999.0,57,0.00,,,0.00,Wunderground v.1.15,2013-02-18 01:02:00,
2013-02-17 19:07:00,38.0,24.5,30.12,East,85,2.0,-999.0,58,0.00,,,0.00,Wunderground v.1.15,2013-02-18 01:07:00,
2013-02-17 19:12:00,37.8,24.7,30.10,ESE,109,4.0,-999.0,59,0.00,,,0.00,Wunderground v.1.15,2013-02-18 01:12:00,
2013-02-17 19:17:00,37.7,23.8,30.10,West,279,4.0,-999.0,57,0.00,,,0.00,Wunderground v.1.15,2013-02-18 01:17:00,
2013-02-17 19:22:00,37.6,24.1,30.11,ESE,105,6.0,-999.0,58,0.00,,,0.00,Wunderground v.1.15,2013-02-18 01:22:00,
2013-02-17 19:27:00,37.7,23.8,30.10,West,279,6.0,-999.0,57,0.00,,,0.00,Wunderground v.1.15,2013-02-18 01:27:00,
2013-02-17 19:32:00,37.9,24.0,30.11,ESE,109,9.0,-999.0,57,0.00,,,0.00,Wunderground v.1.15,2013-02-18 01:32:00,
2013-02-17 19:37:00,37.9,24.4,30.10,ESE,104,9.0,-999.0,58,0.00,,,0.00,Wunderground v.1.15,2013-02-18 01:37:00,
2013-02-17 19:42:00,37.8,23.9,30.10,ESE,109,10.0,-999.0,57,0.00,,,0.00,Wunderground v.1.15,2013-02-18 01:42:00,
2013-02-17 19:47:00,37.8,23.9,30.11,ESE,107,9.0,-999.0,57,0.00,,,0.00,Wunderground v.1.15,2013-02-18 01:47:00,
2013-02-17 19:52:00,37.6,24.6,30.11,ESE,109,10.0,-999.0,59,0.00,,,0.00,Wunderground v.1.15,2013-02-18 01:52:00,
2013-02-17 19:57:00,37.4,24.8,30.11,ESE,119,11.0,-999.0,60,0.00,,,0.00,Wunderground v.1.15,2013-02-18 01:57:00,
2013-02-17 20:02:00,37.2,23.8,30.12,ESE,119,13.0,-999.0,58,0.00,,,0.00,Wunderground v.1.15,2013-02-18 02:02:00,
2013-02-17 20:07:00,37.1,23.7,30.11,ESE,115,13.0,-999.0,58,0.00,,,0.00,Wunderground v.1.15,2013-02-18 02:07:00,
2013-02-17 20:12:00,37.0,24.4,30.11,ESE,116,13.0,-999.0,60,0.00,,,0.00,Wunderground v.1.15,2013-02-18 02:12:00,
2013-02-17 20:17:00,37.0,24.4,30.10,ESE,118,14.0,-999.0,60,0.00,,,0.00,Wunderground v.1.15,2013-02-18 02:17:00,
2013-02-17 20:22:00,36.8,23.4,30.11,West,279,11.0,-999.0,58,0.00,,,0.00,Wunderground v.1.15,2013-02-18 02:22:00,
2013-02-17 20:27:00,36.7,24.1,30.12,SE,125,12.0,-999.0,60,0.00,,,0.00,Wunderground v.1.15,2013-02-18 02:27:00,
2013-02-17 20:32:00,36.6,23.6,30.11,West,279,13.0,-999.0,59,0.00,,,0.00,Wunderground v.1.15,2013-02-18 02:32:00,
2013-02-17 20:37:00,36.5,23.9,30.10,ESE,123,13.0,-999.0,60,0.00,,,0.00,Wunderground v.1.15,2013-02-18 02:37:00,
2013-02-17 20:42:00,36.4,23.8,30.10,West,279,14.0,-999.0,60,0.00,,,0.00,Wunderground v.1.15,2013-02-18 02:42:00,
2013-02-17 20:47:00,36.4,23.4,30.11,ESE,119,13.0,-999.0,59,0.00,,,0.00,Wunderground v.1.15,2013-02-18 02:47:00,
2013-02-17 20:52:00,36.4,23.8,30.10,ESE,114,12.0,-999.0,60,0.00,,,0.00,Wunderground v.1.15,2013-02-18 02:52:00,
2013-02-17 20:57:00,36.4,23.8,30.10,West,279,14.0,-999.0,60,0.00,,,0.00,Wunderground v.1.15,2013-02-18 02:57:00,
2013-02-17 21:02:00,36.4,23.8,30.10,ESE,117,13.0,-999.0,60,0.00,,,0.00,Wunderground v.1.15,2013-02-18 03:02:00,
2013-02-17 21:07:00,36.5,23.9,30.10,ESE,123,10.0,-999.0,60,0.00,,,0.00,Wunderground v.1.15,2013-02-18 03:07:00,
2013-02-17 21:12:00,36.4,24.2,30.10,ESE,113,9.0,-999.0,61,0.00,,,0.00,Wunderground v.1.15,2013-02-18 03:12:00,
2013-02-17 21:17:00,36.2,24.8,30.10,ESE,114,13.0,-999.0,63,0.00,,,0.00,Wunderground v.1.15,2013-02-18 03:17:00,
2013-02-17 21:22:00,36.0,23.8,30.10,SE,128,15.0,-999.0,61,0.00,,,0.00,Wunderground v.1.15,2013-02-18 03:22:00,
2013-02-17 21:27:00,36.0,23.8,30.10,West,279,10.0,-999.0,61,0.00,,,0.00,Wunderground v.1.15,2013-02-18 03:27:00,
2013-02-17 21:32:00,35.8,24.0,30.10,ESE,113,14.0,-999.0,62,0.00,,,0.00,Wunderground v.1.15,2013-02-18 03:32:00,
2013-02-17 21:37:00,35.7,23.6,30.10,ESE,111,11.0,-999.0,61,0.00,,,0.00,Wunderground v.1.15,2013-02-18 03:37:00,
2013-02-17 21:42:00,35.8,24.0,30.11,ESE,118,15.0,-999.0,62,0.00,,,0.00,Wunderground v.1.15,2013-02-18 03:42:00,
2013-02-17 21:47:00,35.8,23.3,30.09,ESE,109,14.0,-999.0,60,0.00,,,0.00,Wunderground v.1.15,2013-02-18 03:47:00,
2013-02-17 21:52:00,35.9,24.1,30.09,ESE,116,16.0,-999.0,62,0.00,,,0.00,Wunderground v.1.15,2013-02-18 03:52:00,
2013-02-17 21:57:00,36.1,23.5,30.09,SE,126,17.0,-999.0,60,0.00,,,0.00,Wunderground v.1.15,2013-02-18 03:57:00,
2013-02-17 22:02:00,36.4,23.4,30.09,SE,124,17.0,-999.0,59,0.00,,,0.00,Wunderground v.1.15,2013-02-18 04:02:00,
2013-02-17 22:07:00,36.8,23.4,30.09,ESE,122,14.0,-999.0,58,0.00,,,0.00,Wunderground v.1.15,2013-02-18 04:07:00,
2013-02-17 22:12:00,37.1,23.7,30.09,West,279,20.0,-999.0,58,0.00,,,0.00,Wunderground v.1.15,2013-02-18 04:12:00,
2013-02-17 22:17:00,37.4,23.5,30.10,ESE,119,15.0,-999.0,57,0.00,,,0.00,Wunderground v.1.15,2013-02-18 04:17:00,
2013-02-17 22:22:00,37.6,23.7,30.08,SE,127,16.0,-999.0,57,0.00,,,0.00,Wunderground v.1.15,2013-02-18 04:22:00,
2013-02-17 22:27:00,37.8,23.9,30.08,SE,127,14.0,-999.0,57,0.00,,,0.00,Wunderground v.1.15,2013-02-18 04:27:00,
2013-02-17 22:32:00,37.9,23.6,30.08,ESE,121,14.0,-999.0,56,0.00,,,0.00,Wunderground v.1.15,2013-02-18 04:32:00,
2013-02-17 22:37:00,38.0,23.7,30.08,SE,129,13.0,-999.0,56,0.00,,,0.00,Wunderground v.1.15,2013-02-18 04:37:00,
2013-02-17 22:42:00,38.1,23.8,30.09,SE,124,17.0,-999.0,56,0.00,,,0.00,Wunderground v.1.15,2013-02-18 04:42:00,
2013-02-17 22:47:00,38.2,23.9,30.07,ESE,115,16.0,-999.0,56,0.00,,,0.00,Wunderground v.1.15,2013-02-18 04:47:00,
2013-02-17 22:52:00,38.3,24.0,30.07,West,279,17.0,-999.0,56,0.00,,,0.00,Wunderground v.1.15,2013-02-18 04:52:00,
2013-02-17 22:57:00,38.2,23.9,30.07,West,279,15.0,-999.0,56,0.00,,,0.00,Wunderground v.1.15,2013-02-18 04:57:00,
2013-02-17 23:00:00,38.2,23.9,30.07,SE,130,19.0,-999.0,56,0.00,,,0.00,Wunderground v.1.15,2013-02-18 05:00:00,
2013-02-17 23:05:00,38.3,24.0,30.07,SE,124,16.0,-999.0,56,0.00,,,0.00,Wunderground v.1.15,2013-02-18 05:05:00,
2013-02-17 23:10:00,38.4,24.1,30.08,ESE,119,18.0,-999.0,56,0.00,,,0.00,Wunderground v.1.15,2013-02-18 05:10:00,
2013-02-17 23:15:00,38.5,24.1,30.07,SE,130,17.0,-999.0,56,0.00,,,0.00,Wunderground v.1.15,2013-02-18 05:15:00,
2013-02-17 23:20:00,38.5,24.1,30.07,West,279,15.0,-999.0,56,0.00,,,0.00,Wunderground v.1.15,2013-02-18 05:20:00,
2013-02-17 23:25:00,38.5,24.1,30.07,ESE,121,20.0,-999.0,56,0.00,,,0.00,Wunderground v.1.15,2013-02-18 05:25:00,
2013-02-17 23:30:00,38.6,24.2,30.06,SE,131,18.0,-999.0,56,0.00,,,0.00,Wunderground v.1.15,2013-02-18 05:30:00,
2013-02-17 23:35:00,38.6,24.7,30.06,SE,130,19.0,-999.0,57,0.00,,,0.00,Wunderground v.1.15,2013-02-18 05:35:00,
2013-02-17 23:40:00,38.6,24.7,30.06,SE,128,16.0,-999.0,57,0.00,,,0.00,Wunderground v.1.15,2013-02-18 05:40:00,
2013-02-17 23:45:00,38.7,24.8,30.06,SE,124,23.0,-999.0,57,0.00,,,0.00,Wunderground v.1.15,2013-02-18 05:45:00,
2013-02-17 23:50:00,38.8,24.9,30.06,West,279,17.0,-999.0,57,0.00,,,0.00,Wunderground v.1.15,2013-02-18 05:50:00,
2013-02-17 23:55:00,38.9,24.9,30.06,West,279,18.0,-999.0,57,0.00,,,0.00,Wunderground v.1.15,2013-02-18 05:55:00,